sensor_id;sensor_type;location;lat;lon;timestamp;P1;durP1;ratioP1;P2;durP2;ratioP2
70455;SDS011;57916;51.996;5.180;2022-09-03T01:56:16;3.65;;;2.03;;
70455;SDS011;57916;51.996;5.180;2022-09-03T01:59:22;3.60;;;2.28;;
70455;SDS011;57916;51.996;5.180;2022-09-03T02:02:04;3.42;;;2.25;;
70455;SDS011;57916;51.996;5.180;2022-09-03T02:04:36;4.87;;;2.20;;
70455;SDS011;57916;51.996;5.180;2022-09-03T02:07:03;4.90;;;2.17;;
70455;SDS011;57916;51.996;5.180;2022-09-03T02:09:31;4.30;;;2.20;;
70455;SDS011;57916;51.996;5.180;2022-09-03T02:12:00;3.22;;;2.05;;
70455;SDS011;57916;51.996;5.180;2022-09-03T02:14:33;4.78;;;2.17;;
70455;SDS011;57916;51.996;5.180;2022-09-03T02:17:01;3.57;;;2.00;;
70455;SDS011;57916;51.996;5.180;2022-09-03T02:19:30;4.05;;;2.17;;
70455;SDS011;57916;51.996;5.180;2022-09-03T02:21:59;3.45;;;2.05;;
70455;SDS011;57916;51.996;5.180;2022-09-03T02:24:26;6.70;;;2.20;;
70455;SDS011;57916;51.996;5.180;2022-09-03T02:26:54;5.70;;;2.22;;
70455;SDS011;57916;51.996;5.180;2022-09-03T02:29:21;4.32;;;2.42;;
70455;SDS011;57916;51.996;5.180;2022-09-03T02:31:49;6.20;;;2.33;;
70455;SDS011;57916;51.996;5.180;2022-09-03T02:34:16;4.85;;;2.38;;
70455;SDS011;57916;51.996;5.180;2022-09-03T02:36:44;3.20;;;2.20;;
70455;SDS011;57916;51.996;5.180;2022-09-03T02:39:12;3.35;;;2.30;;
70455;SDS011;57916;51.996;5.180;2022-09-03T02:41:40;3.17;;;2.30;;
70455;SDS011;57916;51.996;5.180;2022-09-03T02:44:09;3.00;;;2.20;;
70455;SDS011;57916;51.996;5.180;2022-09-03T02:47:01;2.40;;;2.20;;
70455;SDS011;57916;51.996;5.180;2022-09-03T02:49:30;5.32;;;2.50;;
70455;SDS011;57916;51.996;5.180;2022-09-03T02:51:59;4.82;;;2.20;;
70455;SDS011;57916;51.996;5.180;2022-09-03T02:54:30;2.10;;;2.00;;
70455;SDS011;57916;51.996;5.180;2022-09-03T02:57:01;2.70;;;2.13;;
70455;SDS011;57916;51.996;5.180;2022-09-03T02:59:28;5.20;;;2.28;;
70455;SDS011;57916;51.996;5.180;2022-09-03T03:01:55;2.83;;;2.05;;
70455;SDS011;57916;51.996;5.180;2022-09-03T03:04:26;2.75;;;2.20;;
70455;SDS011;57916;51.996;5.180;2022-09-03T03:06:53;3.85;;;2.30;;
70455;SDS011;57916;51.996;5.180;2022-09-03T03:09:21;5.50;;;2.10;;
70455;SDS011;57916;51.996;5.180;2022-09-03T03:11:47;3.22;;;2.20;;
70455;SDS011;57916;51.996;5.180;2022-09-03T03:14:16;2.85;;;2.30;;
70455;SDS011;57916;51.996;5.180;2022-09-03T03:16:43;3.10;;;2.20;;
70455;SDS011;57916;51.996;5.180;2022-09-03T03:19:10;4.20;;;2.20;;
70455;SDS011;57916;51.996;5.180;2022-09-03T03:21:37;4.40;;;2.13;;
70455;SDS011;57916;51.996;5.180;2022-09-03T03:24:05;3.90;;;1.98;;
70455;SDS011;57916;51.996;5.180;2022-09-03T03:26:32;6.40;;;2.33;;
70455;SDS011;57916;51.996;5.180;2022-09-03T03:29:00;2.95;;;2.45;;
70455;SDS011;57916;51.996;5.180;2022-09-03T03:31:31;2.65;;;2.30;;
70455;SDS011;57916;51.996;5.180;2022-09-03T03:33:59;2.20;;;2.10;;
70455;SDS011;57916;51.996;5.180;2022-09-03T03:36:31;3.92;;;2.22;;
70455;SDS011;57916;51.996;5.180;2022-09-03T03:38:59;2.43;;;2.20;;
70455;SDS011;57916;51.996;5.180;2022-09-03T03:41:28;2.55;;;2.33;;
70455;SDS011;57916;51.996;5.180;2022-09-03T03:44:00;4.20;;;2.30;;
70455;SDS011;57916;51.996;5.180;2022-09-03T03:46:29;4.07;;;2.83;;
70455;SDS011;57916;51.996;5.180;2022-09-03T03:49:00;4.85;;;2.28;;
70455;SDS011;57916;51.996;5.180;2022-09-03T03:51:28;4.05;;;2.35;;
70455;SDS011;57916;51.996;5.180;2022-09-03T03:53:56;4.68;;;2.30;;
70455;SDS011;57916;51.996;5.180;2022-09-03T03:56:28;5.95;;;2.33;;
70455;SDS011;57916;51.996;5.180;2022-09-03T03:58:55;3.60;;;2.30;;
70455;SDS011;57916;51.996;5.180;2022-09-03T04:01:25;5.20;;;2.28;;
70455;SDS011;57916;51.996;5.180;2022-09-03T04:03:56;5.72;;;2.20;;
70455;SDS011;57916;51.996;5.180;2022-09-03T04:06:25;3.10;;;2.20;;
70455;SDS011;57916;51.996;5.180;2022-09-03T04:08:53;4.90;;;2.40;;
70455;SDS011;57916;51.996;5.180;2022-09-03T04:11:20;3.38;;;2.30;;
70455;SDS011;57916;51.996;5.180;2022-09-03T04:13:49;2.60;;;2.10;;
70455;SDS011;57916;51.996;5.180;2022-09-03T04:16:21;2.30;;;2.10;;
70455;SDS011;57916;51.996;5.180;2022-09-03T04:18:49;2.35;;;2.25;;
70455;SDS011;57916;51.996;5.180;2022-09-03T04:21:17;5.03;;;2.15;;
70455;SDS011;57916;51.996;5.180;2022-09-03T04:23:47;3.33;;;2.25;;
70455;SDS011;57916;51.996;5.180;2022-09-03T04:26:16;4.68;;;2.20;;
70455;SDS011;57916;51.996;5.180;2022-09-03T04:28:45;2.50;;;2.35;;
70455;SDS011;57916;51.996;5.180;2022-09-03T04:31:13;3.70;;;2.33;;
70455;SDS011;57916;51.996;5.180;2022-09-03T04:33:41;3.83;;;2.50;;
70455;SDS011;57916;51.996;5.180;2022-09-03T04:36:13;2.60;;;2.35;;
70455;SDS011;57916;51.996;5.180;2022-09-03T04:38:46;3.85;;;2.50;;
70455;SDS011;57916;51.996;5.180;2022-09-03T04:41:16;3.47;;;2.40;;
70455;SDS011;57916;51.996;5.180;2022-09-03T04:43:44;3.50;;;2.63;;
70455;SDS011;57916;51.996;5.180;2022-09-03T04:46:17;6.78;;;2.78;;
70455;SDS011;57916;51.996;5.180;2022-09-03T04:48:47;2.70;;;2.50;;
70455;SDS011;57916;51.996;5.180;2022-09-03T04:51:19;3.47;;;2.40;;
70455;SDS011;57916;51.996;5.180;2022-09-03T04:53:52;6.15;;;2.88;;
70455;SDS011;57916;51.996;5.180;2022-09-03T04:56:22;2.67;;;2.40;;
70455;SDS011;57916;51.996;5.180;2022-09-03T04:58:58;4.30;;;2.40;;
70455;SDS011;57916;51.996;5.180;2022-09-03T05:01:32;2.55;;;2.35;;
70455;SDS011;57916;51.996;5.180;2022-09-03T05:04:00;5.15;;;2.42;;
70455;SDS011;57916;51.996;5.180;2022-09-03T05:06:28;2.92;;;2.50;;
70455;SDS011;57916;51.996;5.180;2022-09-03T05:08:56;6.07;;;2.50;;
70455;SDS011;57916;51.996;5.180;2022-09-03T05:11:24;4.60;;;2.53;;
70455;SDS011;57916;51.996;5.180;2022-09-03T05:13:55;5.22;;;2.55;;
70455;SDS011;57916;51.996;5.180;2022-09-03T05:16:24;2.63;;;2.42;;
70455;SDS011;57916;51.996;5.180;2022-09-03T05:18:56;3.25;;;2.40;;
70455;SDS011;57916;51.996;5.180;2022-09-03T05:21:25;2.83;;;2.63;;
70455;SDS011;57916;51.996;5.180;2022-09-03T05:23:53;3.08;;;2.50;;
70455;SDS011;57916;51.996;5.180;2022-09-03T05:26:25;4.35;;;2.70;;
70455;SDS011;57916;51.996;5.180;2022-09-03T05:28:54;6.47;;;2.42;;
70455;SDS011;57916;51.996;5.180;2022-09-03T05:31:23;4.03;;;2.30;;
70455;SDS011;57916;51.996;5.180;2022-09-03T05:33:53;4.53;;;2.20;;
70455;SDS011;57916;51.996;5.180;2022-09-03T05:36:24;7.57;;;2.30;;
70455;SDS011;57916;51.996;5.180;2022-09-03T05:38:53;6.18;;;2.40;;
70455;SDS011;57916;51.996;5.180;2022-09-03T05:41:21;3.58;;;2.40;;
70455;SDS011;57916;51.996;5.180;2022-09-03T05:43:49;4.78;;;2.33;;
70455;SDS011;57916;51.996;5.180;2022-09-03T05:46:22;3.75;;;2.58;;
70455;SDS011;57916;51.996;5.180;2022-09-03T05:48:57;3.78;;;2.30;;
70455;SDS011;57916;51.996;5.180;2022-09-03T05:51:25;3.72;;;2.47;;
70455;SDS011;57916;51.996;5.180;2022-09-03T05:53:52;2.80;;;2.60;;
70455;SDS011;57916;51.996;5.180;2022-09-03T05:56:21;2.80;;;2.38;;
70455;SDS011;57916;51.996;5.180;2022-09-03T05:58:50;2.78;;;2.58;;
70455;SDS011;57916;51.996;5.180;2022-09-03T06:01:20;5.03;;;2.35;;
70455;SDS011;57916;51.996;5.180;2022-09-03T06:03:53;2.63;;;2.33;;
70455;SDS011;57916;51.996;5.180;2022-09-03T06:06:24;3.75;;;2.25;;
70455;SDS011;57916;51.996;5.180;2022-09-03T06:08:53;5.90;;;2.50;;
70455;SDS011;57916;51.996;5.180;2022-09-03T06:11:20;3.90;;;2.50;;
70455;SDS011;57916;51.996;5.180;2022-09-03T06:13:50;3.67;;;2.20;;
70455;SDS011;57916;51.996;5.180;2022-09-03T06:16:17;3.80;;;2.50;;
70455;SDS011;57916;51.996;5.180;2022-09-03T06:18:56;3.65;;;2.30;;
70455;SDS011;57916;51.996;5.180;2022-09-03T06:21:24;2.72;;;2.17;;
70455;SDS011;57916;51.996;5.180;2022-09-03T06:23:51;4.57;;;2.42;;
70455;SDS011;57916;51.996;5.180;2022-09-03T06:26:25;2.50;;;2.15;;
70455;SDS011;57916;51.996;5.180;2022-09-03T06:28:55;3.60;;;2.08;;
70455;SDS011;57916;51.996;5.180;2022-09-03T06:31:23;4.97;;;2.17;;
70455;SDS011;57916;51.996;5.180;2022-09-03T06:33:50;2.72;;;2.00;;
70455;SDS011;57916;51.996;5.180;2022-09-03T06:36:19;6.22;;;2.08;;
70455;SDS011;57916;51.996;5.180;2022-09-03T06:38:50;9.70;;;1.90;;
70455;SDS011;57916;51.996;5.180;2022-09-03T06:41:18;2.20;;;1.80;;
70455;SDS011;57916;51.996;5.180;2022-09-03T06:43:51;2.30;;;1.70;;
70455;SDS011;57916;51.996;5.180;2022-09-03T06:46:21;3.38;;;1.88;;
70455;SDS011;57916;51.996;5.180;2022-09-03T06:48:49;4.47;;;1.80;;
70455;SDS011;57916;51.996;5.180;2022-09-03T06:51:18;5.32;;;2.00;;
70455;SDS011;57916;51.996;5.180;2022-09-03T06:53:47;3.63;;;1.70;;
70455;SDS011;57916;51.996;5.180;2022-09-03T06:56:16;3.75;;;1.95;;
70455;SDS011;57916;51.996;5.180;2022-09-03T06:58:46;9.10;;;1.83;;
70455;SDS011;57916;51.996;5.180;2022-09-03T07:01:17;1.85;;;1.73;;
70455;SDS011;57916;51.996;5.180;2022-09-03T07:03:47;3.50;;;1.60;;
70455;SDS011;57916;51.996;5.180;2022-09-03T07:06:19;2.53;;;1.73;;
70455;SDS011;57916;51.996;5.180;2022-09-03T07:08:47;1.80;;;1.60;;
70455;SDS011;57916;51.996;5.180;2022-09-03T07:11:14;3.47;;;1.65;;
70455;SDS011;57916;51.996;5.180;2022-09-03T07:13:45;1.70;;;1.60;;
70455;SDS011;57916;51.996;5.180;2022-09-03T07:16:14;1.83;;;1.73;;
70455;SDS011;57916;51.996;5.180;2022-09-03T07:18:44;4.63;;;1.63;;
70455;SDS011;57916;51.996;5.180;2022-09-03T07:21:13;5.40;;;1.80;;
70455;SDS011;57916;51.996;5.180;2022-09-03T07:23:44;2.60;;;1.60;;
70455;SDS011;57916;51.996;5.180;2022-09-03T07:26:13;5.07;;;1.90;;
70455;SDS011;57916;51.996;5.180;2022-09-03T07:28:51;2.15;;;1.60;;
70455;SDS011;57916;51.996;5.180;2022-09-03T07:31:21;3.45;;;1.77;;
70455;SDS011;57916;51.996;5.180;2022-09-03T07:33:56;1.85;;;1.60;;
70455;SDS011;57916;51.996;5.180;2022-09-03T07:36:25;3.05;;;1.90;;
70455;SDS011;57916;51.996;5.180;2022-09-03T07:38:56;3.40;;;1.73;;
70455;SDS011;57916;51.996;5.180;2022-09-03T07:41:24;5.40;;;1.73;;
70455;SDS011;57916;51.996;5.180;2022-09-03T07:43:54;5.00;;;1.77;;
70455;SDS011;57916;51.996;5.180;2022-09-03T07:46:23;2.40;;;1.80;;
70455;SDS011;57916;51.996;5.180;2022-09-03T07:48:53;5.90;;;1.60;;
70455;SDS011;57916;51.996;5.180;2022-09-03T07:51:23;2.15;;;1.80;;
70455;SDS011;57916;51.996;5.180;2022-09-03T07:53:55;3.58;;;1.70;;
70455;SDS011;57916;51.996;5.180;2022-09-03T07:56:23;5.67;;;1.73;;
70455;SDS011;57916;51.996;5.180;2022-09-03T07:58:52;4.68;;;1.60;;
70455;SDS011;57916;51.996;5.180;2022-09-03T08:01:23;2.40;;;1.63;;
70455;SDS011;57916;51.996;5.180;2022-09-03T08:03:51;2.55;;;1.70;;
70455;SDS011;57916;51.996;5.180;2022-09-03T08:06:20;3.80;;;1.50;;
70455;SDS011;57916;51.996;5.180;2022-09-03T08:08:53;2.80;;;1.50;;
70455;SDS011;57916;51.996;5.180;2022-09-03T08:11:30;4.60;;;1.70;;
70455;SDS011;57916;51.996;5.180;2022-09-03T08:14:09;2.60;;;1.63;;
70455;SDS011;57916;51.996;5.180;2022-09-03T08:16:38;4.28;;;1.50;;
70455;SDS011;57916;51.996;5.180;2022-09-03T08:19:07;2.30;;;1.63;;
70455;SDS011;57916;51.996;5.180;2022-09-03T08:21:36;3.30;;;1.85;;
70455;SDS011;57916;51.996;5.180;2022-09-03T08:24:03;2.33;;;1.77;;
70455;SDS011;57916;51.996;5.180;2022-09-03T08:26:51;1.98;;;1.70;;
70455;SDS011;57916;51.996;5.180;2022-09-03T08:29:18;2.92;;;1.60;;
70455;SDS011;57916;51.996;5.180;2022-09-03T08:31:46;2.47;;;1.75;;
70455;SDS011;57916;51.996;5.180;2022-09-03T08:34:13;2.40;;;1.70;;
70455;SDS011;57916;51.996;5.180;2022-09-03T08:36:42;3.58;;;1.50;;
70455;SDS011;57916;51.996;5.180;2022-09-03T08:39:12;1.92;;;1.60;;
70455;SDS011;57916;51.996;5.180;2022-09-03T08:46:59;3.67;;;1.60;;
70455;SDS011;57916;51.996;5.180;2022-09-03T08:52:38;2.75;;;1.50;;
70455;SDS011;57916;51.996;5.180;2022-09-03T08:58:13;4.50;;;1.67;;
70455;SDS011;57916;51.996;5.180;2022-09-03T09:00:56;2.00;;;1.70;;
70455;SDS011;57916;51.996;5.180;2022-09-03T09:06:35;3.08;;;1.58;;
70455;SDS011;57916;51.996;5.180;2022-09-03T09:14:22;2.40;;;1.50;;
70455;SDS011;57916;51.996;5.180;2022-09-03T09:22:45;3.55;;;1.60;;
70455;SDS011;57916;51.996;5.180;2022-09-03T09:25:20;2.58;;;1.60;;
70455;SDS011;57916;51.996;5.180;2022-09-03T09:30:27;2.83;;;1.60;;
70455;SDS011;57916;51.996;5.180;2022-09-03T09:32:58;2.15;;;1.50;;
70455;SDS011;57916;51.996;5.180;2022-09-03T09:35:25;2.65;;;1.50;;
70455;SDS011;57916;51.996;5.180;2022-09-03T09:37:53;2.72;;;1.70;;
70455;SDS011;57916;51.996;5.180;2022-09-03T09:40:27;1.60;;;1.50;;
70455;SDS011;57916;51.996;5.180;2022-09-03T09:43:05;5.68;;;1.60;;
70455;SDS011;57916;51.996;5.180;2022-09-03T09:45:37;2.17;;;1.83;;
70455;SDS011;57916;51.996;5.180;2022-09-03T09:48:17;2.70;;;1.42;;
70455;SDS011;57916;51.996;5.180;2022-09-03T09:50:45;2.85;;;1.50;;
70455;SDS011;57916;51.996;5.180;2022-09-03T09:53:12;2.60;;;1.40;;
70455;SDS011;57916;51.996;5.180;2022-09-03T09:55:50;1.50;;;1.40;;
70455;SDS011;57916;51.996;5.180;2022-09-03T09:58:24;6.65;;;1.60;;
70455;SDS011;57916;51.996;5.180;2022-09-03T10:03:51;2.80;;;1.58;;
70455;SDS011;57916;51.996;5.180;2022-09-03T10:06:24;6.43;;;1.53;;
70455;SDS011;57916;51.996;5.180;2022-09-03T10:09:18;4.75;;;1.50;;
70455;SDS011;57916;51.996;5.180;2022-09-03T10:15:19;7.38;;;1.60;;
70455;SDS011;57916;51.996;5.180;2022-09-03T10:21:04;2.38;;;1.38;;
70455;SDS011;57916;51.996;5.180;2022-09-03T10:26:22;5.50;;;1.38;;
70455;SDS011;57916;51.996;5.180;2022-09-03T10:29:01;2.70;;;1.40;;
70455;SDS011;57916;51.996;5.180;2022-09-03T10:36:59;1.70;;;1.30;;
70455;SDS011;57916;51.996;5.180;2022-09-03T10:39:38;4.55;;;1.27;;
70455;SDS011;57916;51.996;5.180;2022-09-03T10:50:47;5.50;;;1.50;;
70455;SDS011;57916;51.996;5.180;2022-09-03T11:09:29;6.30;;;1.40;;
70455;SDS011;57916;51.996;5.180;2022-09-03T11:12:03;4.35;;;1.50;;
70455;SDS011;57916;51.996;5.180;2022-09-03T11:15:00;7.60;;;1.30;;
70455;SDS011;57916;51.996;5.180;2022-09-03T11:18:12;2.25;;;1.60;;
70455;SDS011;57916;51.996;5.180;2022-09-03T11:20:47;5.20;;;1.40;;
70455;SDS011;57916;51.996;5.180;2022-09-03T11:23:16;4.63;;;1.90;;
70455;SDS011;57916;51.996;5.180;2022-09-03T11:25:48;7.20;;;1.40;;
70455;SDS011;57916;51.996;5.180;2022-09-03T11:33:49;6.47;;;1.40;;
70455;SDS011;57916;51.996;5.180;2022-09-03T11:36:27;8.63;;;1.45;;
70455;SDS011;57916;51.996;5.180;2022-09-03T11:38:59;6.15;;;1.40;;
70455;SDS011;57916;51.996;5.180;2022-09-03T11:41:31;1.55;;;1.23;;
70455;SDS011;57916;51.996;5.180;2022-09-03T11:44:16;3.30;;;1.50;;
70455;SDS011;57916;51.996;5.180;2022-09-03T11:46:53;3.97;;;1.40;;
70455;SDS011;57916;51.996;5.180;2022-09-03T11:49:43;2.15;;;1.40;;
70455;SDS011;57916;51.996;5.180;2022-09-03T11:52:26;8.93;;;1.33;;
70455;SDS011;57916;51.996;5.180;2022-09-03T11:54:54;2.50;;;1.40;;
70455;SDS011;57916;51.996;5.180;2022-09-03T11:57:26;5.47;;;1.40;;
70455;SDS011;57916;51.996;5.180;2022-09-03T12:00:08;2.63;;;1.40;;
70455;SDS011;57916;51.996;5.180;2022-09-03T12:02:44;1.55;;;1.42;;
70455;SDS011;57916;51.996;5.180;2022-09-03T12:10:35;2.40;;;1.50;;
70455;SDS011;57916;51.996;5.180;2022-09-03T12:18:35;4.00;;;1.50;;
70455;SDS011;57916;51.996;5.180;2022-09-03T12:21:05;4.30;;;1.80;;
70455;SDS011;57916;51.996;5.180;2022-09-03T12:23:41;4.55;;;1.30;;
70455;SDS011;57916;51.996;5.180;2022-09-03T12:26:37;5.90;;;1.40;;
70455;SDS011;57916;51.996;5.180;2022-09-03T12:29:06;4.47;;;1.65;;
70455;SDS011;57916;51.996;5.180;2022-09-03T12:32:10;3.10;;;1.27;;
70455;SDS011;57916;51.996;5.180;2022-09-03T12:34:39;6.13;;;1.80;;
70455;SDS011;57916;51.996;5.180;2022-09-03T12:37:15;2.17;;;1.50;;
70455;SDS011;57916;51.996;5.180;2022-09-03T12:40:19;6.40;;;1.70;;
70455;SDS011;57916;51.996;5.180;2022-09-03T12:42:48;5.30;;;1.70;;
70455;SDS011;57916;51.996;5.180;2022-09-03T12:45:22;3.80;;;1.60;;
70455;SDS011;57916;51.996;5.180;2022-09-03T12:47:51;1.80;;;1.48;;
70455;SDS011;57916;51.996;5.180;2022-09-03T12:50:20;3.20;;;1.50;;
70455;SDS011;57916;51.996;5.180;2022-09-03T12:52:51;2.03;;;1.90;;
70455;SDS011;57916;51.996;5.180;2022-09-03T12:55:26;4.18;;;1.65;;
70455;SDS011;57916;51.996;5.180;2022-09-03T13:00:28;2.67;;;1.70;;
70455;SDS011;57916;51.996;5.180;2022-09-03T13:05:51;3.50;;;1.67;;
70455;SDS011;57916;51.996;5.180;2022-09-03T13:08:28;3.75;;;1.50;;
70455;SDS011;57916;51.996;5.180;2022-09-03T13:11:03;6.82;;;1.67;;
70455;SDS011;57916;51.996;5.180;2022-09-03T13:13:32;4.70;;;1.80;;
70455;SDS011;57916;51.996;5.180;2022-09-03T13:21:32;3.67;;;1.70;;
70455;SDS011;57916;51.996;5.180;2022-09-03T13:24:45;5.53;;;1.83;;
70455;SDS011;57916;51.996;5.180;2022-09-03T13:30:15;5.93;;;1.73;;
70455;SDS011;57916;51.996;5.180;2022-09-03T13:32:51;5.10;;;1.67;;
70455;SDS011;57916;51.996;5.180;2022-09-03T13:40:51;17.70;;;2.00;;
70455;SDS011;57916;51.996;5.180;2022-09-03T13:44:05;3.70;;;1.67;;
70455;SDS011;57916;51.996;5.180;2022-09-03T13:52:53;2.47;;;1.80;;
70455;SDS011;57916;51.996;5.180;2022-09-03T13:55:45;3.70;;;1.90;;
70455;SDS011;57916;51.996;5.180;2022-09-03T14:01:01;6.07;;;1.90;;
70455;SDS011;57916;51.996;5.180;2022-09-03T14:03:52;4.00;;;1.70;;
70455;SDS011;57916;51.996;5.180;2022-09-03T14:06:41;2.00;;;1.77;;
70455;SDS011;57916;51.996;5.180;2022-09-03T14:09:22;1.80;;;1.70;;
70455;SDS011;57916;51.996;5.180;2022-09-03T14:12:20;7.07;;;1.95;;
70455;SDS011;57916;51.996;5.180;2022-09-03T14:15:19;1.58;;;1.52;;
70455;SDS011;57916;51.996;5.180;2022-09-03T14:20:56;6.32;;;1.77;;
70455;SDS011;57916;51.996;5.180;2022-09-03T14:26:33;4.60;;;1.83;;
70455;SDS011;57916;51.996;5.180;2022-09-03T14:39:53;8.10;;;1.90;;
70455;SDS011;57916;51.996;5.180;2022-09-03T14:42:35;2.88;;;1.70;;
70455;SDS011;57916;51.996;5.180;2022-09-03T14:48:41;3.30;;;1.70;;
70455;SDS011;57916;51.996;5.180;2022-09-03T15:05:53;5.25;;;1.98;;
70455;SDS011;57916;51.996;5.180;2022-09-03T15:11:55;2.20;;;1.90;;
70455;SDS011;57916;51.996;5.180;2022-09-03T15:20:10;4.60;;;2.10;;
70455;SDS011;57916;51.996;5.180;2022-09-03T15:25:35;2.83;;;1.83;;
70455;SDS011;57916;51.996;5.180;2022-09-03T15:28:49;3.53;;;1.80;;
70455;SDS011;57916;51.996;5.180;2022-09-03T15:31:27;2.67;;;1.83;;
70455;SDS011;57916;51.996;5.180;2022-09-03T15:34:11;6.85;;;1.80;;
70455;SDS011;57916;51.996;5.180;2022-09-03T15:36:40;2.20;;;1.93;;
70455;SDS011;57916;51.996;5.180;2022-09-03T15:39:22;2.85;;;1.92;;
70455;SDS011;57916;51.996;5.180;2022-09-03T15:41:53;5.22;;;2.00;;
70455;SDS011;57916;51.996;5.180;2022-09-03T15:44:24;2.40;;;1.98;;
70455;SDS011;57916;51.996;5.180;2022-09-03T15:49:43;11.43;;;2.05;;
70455;SDS011;57916;51.996;5.180;2022-09-03T15:52:40;6.05;;;1.83;;
70455;SDS011;57916;51.996;5.180;2022-09-03T15:55:29;3.40;;;1.90;;
70455;SDS011;57916;51.996;5.180;2022-09-03T16:00:55;3.17;;;1.90;;
70455;SDS011;57916;51.996;5.180;2022-09-03T16:06:31;3.25;;;2.00;;
70455;SDS011;57916;51.996;5.180;2022-09-03T16:11:54;4.03;;;1.90;;
70455;SDS011;57916;51.996;5.180;2022-09-03T16:14:42;7.15;;;2.05;;
70455;SDS011;57916;51.996;5.180;2022-09-03T16:19:58;5.93;;;2.00;;
70455;SDS011;57916;51.996;5.180;2022-09-03T16:22:32;6.22;;;2.08;;
70455;SDS011;57916;51.996;5.180;2022-09-03T16:25:09;3.20;;;1.80;;
70455;SDS011;57916;51.996;5.180;2022-09-03T16:28:15;1.92;;;1.80;;
70455;SDS011;57916;51.996;5.180;2022-09-03T16:39:34;6.60;;;1.90;;
70455;SDS011;57916;51.996;5.180;2022-09-03T16:51:12;2.40;;;1.75;;
70455;SDS011;57916;51.996;5.180;2022-09-03T17:05:15;5.55;;;2.90;;
70455;SDS011;57916;51.996;5.180;2022-09-03T17:19:30;2.97;;;2.10;;
70455;SDS011;57916;51.996;5.180;2022-09-03T17:22:17;3.60;;;2.00;;
70455;SDS011;57916;51.996;5.180;2022-09-03T17:25:07;4.20;;;2.85;;
70455;SDS011;57916;51.996;5.180;2022-09-03T17:30:47;5.43;;;2.00;;
70455;SDS011;57916;51.996;5.180;2022-09-03T17:33:39;3.60;;;2.22;;
70455;SDS011;57916;51.996;5.180;2022-09-03T17:36:39;5.07;;;1.80;;
70455;SDS011;57916;51.996;5.180;2022-09-03T17:42:03;1.90;;;1.80;;
70455;SDS011;57916;51.996;5.180;2022-09-03T17:53:18;6.93;;;2.00;;
70455;SDS011;57916;51.996;5.180;2022-09-03T17:55:55;3.67;;;1.83;;
70455;SDS011;57916;51.996;5.180;2022-09-03T17:58:30;3.80;;;1.77;;
70455;SDS011;57916;51.996;5.180;2022-09-03T18:01:18;3.83;;;1.85;;
70455;SDS011;57916;51.996;5.180;2022-09-03T18:03:53;2.47;;;1.80;;
70455;SDS011;57916;51.996;5.180;2022-09-03T18:11:34;7.63;;;2.17;;
70455;SDS011;57916;51.996;5.180;2022-09-03T18:25:32;14.63;;;2.22;;
70455;SDS011;57916;51.996;5.180;2022-09-03T18:28:24;15.57;;;2.40;;
70455;SDS011;57916;51.996;5.180;2022-09-03T18:31:34;5.25;;;2.25;;
70455;SDS011;57916;51.996;5.180;2022-09-03T18:34:20;3.17;;;2.10;;
70455;SDS011;57916;51.996;5.180;2022-09-03T18:37:17;6.03;;;2.20;;
70455;SDS011;57916;51.996;5.180;2022-09-03T18:40:22;2.75;;;2.22;;
70455;SDS011;57916;51.996;5.180;2022-09-03T18:43:28;4.75;;;2.38;;
70455;SDS011;57916;51.996;5.180;2022-09-03T18:53:13;4.95;;;2.38;;
70455;SDS011;57916;51.996;5.180;2022-09-03T18:56:17;7.75;;;2.10;;
70455;SDS011;57916;51.996;5.180;2022-09-03T19:02:30;5.30;;;2.00;;
70455;SDS011;57916;51.996;5.180;2022-09-03T19:11:55;4.22;;;2.25;;
70455;SDS011;57916;51.996;5.180;2022-09-03T19:23:48;9.25;;;3.08;;
70455;SDS011;57916;51.996;5.180;2022-09-03T19:26:39;3.83;;;3.08;;
70455;SDS011;57916;51.996;5.180;2022-09-03T19:30:03;4.05;;;3.53;;
70455;SDS011;57916;51.996;5.180;2022-09-03T19:32:53;5.85;;;3.42;;
70455;SDS011;57916;51.996;5.180;2022-09-03T19:35:49;3.67;;;3.40;;
70455;SDS011;57916;51.996;5.180;2022-09-03T19:45:37;4.95;;;3.30;;
70455;SDS011;57916;51.996;5.180;2022-09-03T19:51:52;4.53;;;3.50;;
70455;SDS011;57916;51.996;5.180;2022-09-03T19:54:59;4.00;;;3.67;;
70455;SDS011;57916;51.996;5.180;2022-09-03T19:57:46;9.75;;;3.30;;
70455;SDS011;57916;51.996;5.180;2022-09-03T20:00:57;8.68;;;4.03;;
70455;SDS011;57916;51.996;5.180;2022-09-03T20:03:42;7.68;;;4.20;;
70455;SDS011;57916;51.996;5.180;2022-09-03T20:06:28;7.65;;;4.53;;
70455;SDS011;57916;51.996;5.180;2022-09-03T20:09:17;5.68;;;4.22;;
70455;SDS011;57916;51.996;5.180;2022-09-03T20:12:07;7.28;;;4.45;;
70455;SDS011;57916;51.996;5.180;2022-09-03T20:14:35;7.53;;;4.22;;
70455;SDS011;57916;51.996;5.180;2022-09-03T20:17:12;10.60;;;4.70;;
70455;SDS011;57916;51.996;5.180;2022-09-03T20:31:46;5.07;;;4.28;;
70455;SDS011;57916;51.996;5.180;2022-09-03T20:34:25;9.77;;;4.28;;
70455;SDS011;57916;51.996;5.180;2022-09-03T20:37:09;12.10;;;4.43;;
70455;SDS011;57916;51.996;5.180;2022-09-03T20:42:30;5.15;;;4.50;;
70455;SDS011;57916;51.996;5.180;2022-09-03T20:45:17;5.07;;;4.40;;
70455;SDS011;57916;51.996;5.180;2022-09-03T20:53:04;7.22;;;4.10;;
70455;SDS011;57916;51.996;5.180;2022-09-03T20:55:40;13.98;;;4.50;;
70455;SDS011;57916;51.996;5.180;2022-09-03T21:06:56;6.30;;;4.32;;
70455;SDS011;57916;51.996;5.180;2022-09-03T21:12:30;4.53;;;4.20;;
70455;SDS011;57916;51.996;5.180;2022-09-03T21:27:27;10.10;;;4.65;;
70455;SDS011;57916;51.996;5.180;2022-09-03T21:37:57;9.57;;;5.15;;
70455;SDS011;57916;51.996;5.180;2022-09-03T21:40:28;6.53;;;4.50;;
70455;SDS011;57916;51.996;5.180;2022-09-03T21:43:16;9.02;;;4.88;;
70455;SDS011;57916;51.996;5.180;2022-09-03T21:46:08;5.68;;;5.28;;
70455;SDS011;57916;51.996;5.180;2022-09-03T21:49:03;8.77;;;5.30;;
70455;SDS011;57916;51.996;5.180;2022-09-03T21:51:46;8.13;;;5.30;;
70455;SDS011;57916;51.996;5.180;2022-09-03T21:54:29;6.30;;;5.70;;
70455;SDS011;57916;51.996;5.180;2022-09-03T21:57:12;6.50;;;5.78;;
70455;SDS011;57916;51.996;5.180;2022-09-03T22:00:14;10.18;;;5.63;;
70455;SDS011;57916;51.996;5.180;2022-09-03T22:02:47;9.00;;;5.85;;
70455;SDS011;57916;51.996;5.180;2022-09-03T22:05:15;7.53;;;5.90;;
70455;SDS011;57916;51.996;5.180;2022-09-03T22:07:47;6.55;;;5.95;;
70455;SDS011;57916;51.996;5.180;2022-09-03T22:13:05;6.60;;;6.00;;
70455;SDS011;57916;51.996;5.180;2022-09-03T22:15:43;8.13;;;6.40;;
70455;SDS011;57916;51.996;5.180;2022-09-03T22:18:21;7.78;;;6.47;;
70455;SDS011;57916;51.996;5.180;2022-09-03T22:31:50;7.97;;;6.70;;
70455;SDS011;57916;51.996;5.180;2022-09-03T22:40:28;12.52;;;7.32;;
70455;SDS011;57916;51.996;5.180;2022-09-03T22:43:10;8.70;;;7.22;;
70455;SDS011;57916;51.996;5.180;2022-09-03T22:50:56;14.30;;;7.80;;
70455;SDS011;57916;51.996;5.180;2022-09-03T22:56:09;9.73;;;7.43;;
70455;SDS011;57916;51.996;5.180;2022-09-03T23:07:12;9.48;;;8.10;;
70455;SDS011;57916;51.996;5.180;2022-09-03T23:10:20;12.30;;;8.63;;
70455;SDS011;57916;51.996;5.180;2022-09-03T23:15:37;11.00;;;9.23;;
70455;SDS011;57916;51.996;5.180;2022-09-03T23:18:08;18.40;;;9.85;;
70455;SDS011;57916;51.996;5.180;2022-09-03T23:21:06;10.60;;;9.50;;
70455;SDS011;57916;51.996;5.180;2022-09-03T23:23:57;12.15;;;8.10;;
70455;SDS011;57916;51.996;5.180;2022-09-03T23:26:39;9.50;;;8.60;;
70455;SDS011;57916;51.996;5.180;2022-09-03T23:29:15;12.02;;;8.15;;
70455;SDS011;57916;51.996;5.180;2022-09-03T23:31:59;15.63;;;8.50;;
70455;SDS011;57916;51.996;5.180;2022-09-03T23:34:31;13.17;;;9.00;;
70455;SDS011;57916;51.996;5.180;2022-09-03T23:40:02;12.60;;;8.98;;
70455;SDS011;57916;51.996;5.180;2022-09-03T23:42:49;10.13;;;8.40;;
70455;SDS011;57916;51.996;5.180;2022-09-03T23:56:00;13.15;;;9.98;;
